createdAt,value
2017-12-26T14:00:53.218Z,31.85
2017-12-26T14:01:21.794Z,31.81
2017-12-26T14:02:02.623Z,31.82
2017-12-26T14:02:31.161Z,31.81
2017-12-26T14:02:59.780Z,31.81
2017-12-26T14:03:28.390Z,32
2017-12-26T14:03:57.174Z,32.01
2017-12-26T14:04:25.678Z,32.11
2017-12-26T14:04:54.281Z,32.2
2017-12-26T14:05:22.902Z,32.34
2017-12-26T14:05:51.491Z,32.27
2017-12-26T14:06:20.022Z,32.44
2017-12-26T14:06:48.515Z,32.46
2017-12-26T14:07:16.809Z,32.57
2017-12-26T14:07:45.327Z,32.57
2017-12-26T14:08:13.944Z,32.66
2017-12-26T14:08:42.450Z,32.71
2017-12-26T14:09:11.061Z,32.71
2017-12-26T14:09:39.701Z,32.67
2017-12-26T14:10:08.205Z,32.68
2017-12-26T14:10:36.787Z,32.71
2017-12-26T14:11:05.388Z,32.72
2017-12-26T14:11:33.908Z,32.85
2017-12-26T14:12:02.529Z,32.9
2017-12-26T14:12:31.071Z,32.91
2017-12-26T14:12:59.646Z,32.88
2017-12-26T14:13:28.125Z,32.97
2017-12-26T14:13:56.649Z,33.04
2017-12-26T14:14:25.277Z,32.93
2017-12-26T14:14:53.754Z,33
2017-12-26T14:15:22.204Z,32.95
2017-12-26T14:15:50.811Z,33
2017-12-26T14:16:19.540Z,33
2017-12-26T14:16:48.176Z,33.05
2017-12-26T14:17:16.785Z,33.1
2017-12-26T14:17:45.294Z,33.23
2017-12-26T14:18:13.907Z,33.2
2017-12-26T14:18:42.511Z,33.29
2017-12-26T14:19:11.095Z,33.26
2017-12-26T14:19:39.637Z,33.35
2017-12-26T14:20:08.237Z,33.35
2017-12-26T14:20:36.768Z,33.32
2017-12-26T14:21:05.359Z,33.4
2017-12-26T14:21:33.898Z,33.4
2017-12-26T14:22:02.414Z,33.47
2017-12-26T14:22:31.019Z,33.45
2017-12-26T14:22:59.562Z,33.42
2017-12-26T14:23:28.141Z,33.58
2017-12-26T14:23:56.765Z,33.5
2017-12-26T14:24:25.388Z,33.63
2017-12-26T14:24:54.026Z,33.54
2017-12-26T14:25:22.554Z,33.45
2017-12-26T14:25:51.063Z,33.48
2017-12-26T14:26:19.262Z,33.45
2017-12-26T14:26:47.420Z,33.5
2017-12-26T14:27:15.481Z,33.5
2017-12-26T14:27:43.657Z,33.54
2017-12-26T14:28:11.632Z,33.58
2017-12-26T14:28:39.578Z,33.61
2017-12-26T14:29:07.673Z,33.58
2017-12-26T14:29:35.714Z,33.57
2017-12-26T14:30:03.793Z,33.65
2017-12-26T14:30:31.922Z,33.66
2017-12-26T14:31:00.067Z,33.63
2017-12-26T14:31:28.297Z,33.61
2017-12-26T14:31:56.275Z,33.58
2017-12-26T14:32:24.422Z,33.55
2017-12-26T14:32:52.638Z,33.67
2017-12-26T14:33:20.671Z,33.65
2017-12-26T14:33:48.733Z,33.58
2017-12-26T14:34:16.886Z,33.6
2017-12-26T14:34:45.028Z,33.58
2017-12-26T14:35:13.196Z,33.54
2017-12-26T14:35:41.296Z,33.6
2017-12-26T14:36:09.474Z,33.65
2017-12-26T14:36:37.521Z,33.65
2017-12-26T14:37:05.624Z,33.6
2017-12-26T14:37:33.790Z,33.54
2017-12-26T14:38:01.886Z,33.33
2017-12-26T14:38:29.918Z,33.12
2017-12-26T14:38:58.045Z,33.08
2017-12-26T14:39:26.079Z,32.97
2017-12-26T14:39:54.048Z,32.95
2017-12-26T14:40:22.076Z,33.08
2017-12-26T14:40:50.211Z,33.1
2017-12-26T14:41:18.300Z,33.2
2017-12-26T14:41:46.434Z,33.31
2017-12-26T14:42:14.550Z,33.4
2017-12-26T14:42:42.675Z,33.51
2017-12-26T14:43:10.769Z,33.44
2017-12-26T14:43:38.899Z,33.57
2017-12-26T14:44:07.051Z,33.63
2017-12-26T14:44:35.215Z,33.61
2017-12-26T14:45:03.353Z,33.67
2017-12-26T14:45:31.271Z,33.81
2017-12-26T14:45:59.437Z,33.76
2017-12-26T14:46:27.476Z,33.77
2017-12-26T14:46:55.662Z,33.75
2017-12-26T14:47:23.631Z,33.87
2017-12-26T14:47:51.630Z,33.84
2017-12-26T14:48:19.768Z,33.88
2017-12-26T14:48:47.886Z,33.94
2017-12-26T14:49:16.061Z,34
2017-12-26T14:49:44.250Z,34.06
2017-12-26T14:50:12.377Z,34.16
2017-12-26T14:50:40.393Z,34.21
2017-12-26T14:51:08.431Z,34.21
2017-12-26T14:51:36.534Z,34.25
2017-12-26T14:52:04.685Z,34.18
2017-12-26T14:52:32.813Z,34.21
2017-12-26T14:53:00.850Z,34.11
2017-12-26T14:53:28.998Z,34.16
2017-12-26T14:53:57.112Z,34.21
2017-12-26T14:54:25.145Z,34.28
2017-12-26T14:54:53.289Z,34.22
2017-12-26T14:55:21.427Z,34.26
2017-12-26T14:55:49.552Z,34.22
2017-12-26T14:56:17.612Z,34.24
2017-12-26T14:56:45.626Z,34.07
2017-12-26T14:57:13.605Z,34.04
2017-12-26T14:57:41.653Z,34.06
2017-12-26T14:58:09.844Z,33.94
2017-12-26T14:58:37.987Z,33.84
2017-12-26T14:59:06.163Z,33.82
2017-12-26T14:59:34.174Z,33.76
2017-12-26T15:00:02.227Z,33.79
2017-12-26T15:00:30.383Z,33.79
2017-12-26T15:00:58.510Z,33.75
2017-12-26T15:01:26.625Z,33.77
2017-12-26T15:01:54.765Z,33.76
2017-12-26T15:02:22.769Z,33.77
2017-12-26T15:02:50.872Z,33.69
2017-12-26T15:03:18.980Z,33.72
2017-12-26T15:03:47.092Z,33.73
2017-12-26T15:04:15.192Z,33.69
2017-12-26T15:04:43.343Z,33.72
2017-12-26T15:05:11.308Z,33.7
2017-12-26T15:05:39.415Z,33.81
2017-12-26T15:06:07.464Z,33.76
2017-12-26T15:06:35.496Z,33.79
2017-12-26T15:07:03.635Z,33.81
2017-12-26T15:07:31.780Z,33.85
2017-12-26T15:07:59.858Z,33.87
2017-12-26T15:08:27.937Z,33.75
2017-12-26T15:08:55.885Z,33.72
2017-12-26T15:09:23.929Z,33.7
2017-12-26T15:09:51.893Z,33.6
2017-12-26T15:10:19.858Z,33.47
2017-12-26T15:10:47.893Z,33.36
2017-12-26T15:11:15.901Z,33.29
2017-12-26T15:11:43.861Z,33.32
2017-12-26T15:12:11.880Z,33.26
2017-12-26T15:12:39.987Z,33.2
2017-12-26T15:13:07.966Z,33.23
2017-12-26T15:13:36.148Z,33.29
2017-12-26T15:14:04.128Z,33.35
2017-12-26T15:14:32.197Z,33.4
2017-12-26T15:15:00.331Z,33.48
2017-12-26T15:15:28.350Z,33.42
2017-12-26T15:15:56.487Z,33.53
2017-12-26T15:16:24.687Z,33.44
2017-12-26T15:16:52.812Z,33.38
2017-12-26T15:17:20.916Z,33.4
2017-12-26T15:17:49.051Z,33.35
2017-12-26T15:18:17.254Z,33.32
2017-12-26T15:18:45.287Z,33.26
2017-12-26T15:19:13.360Z,33.12
2017-12-26T15:19:41.532Z,33.08
2017-12-26T15:20:09.548Z,33.08
2017-12-26T15:20:37.645Z,33.05
2017-12-26T15:21:05.843Z,32.93
2017-12-26T15:21:33.871Z,32.86
2017-12-26T15:22:02.073Z,32.76
2017-12-26T15:22:30.138Z,32.76
2017-12-26T15:22:58.175Z,32.76
2017-12-26T15:23:26.289Z,32.81
2017-12-26T15:23:54.363Z,32.82
2017-12-26T15:24:22.389Z,32.86
2017-12-26T15:24:50.519Z,32.95
2017-12-26T15:25:18.565Z,33.08
2017-12-26T15:25:46.712Z,33.22
2017-12-26T15:26:14.823Z,33.31
2017-12-26T15:26:42.880Z,33.51
2017-12-26T15:27:10.972Z,33.55
2017-12-26T15:27:39.093Z,33.57
2017-12-26T15:28:07.217Z,33.54
2017-12-26T15:28:35.271Z,33.45
2017-12-26T15:29:03.416Z,33.47
2017-12-26T15:29:31.548Z,33.5
2017-12-26T15:29:59.493Z,33.51
2017-12-26T15:30:27.539Z,33.45
2017-12-26T15:30:55.528Z,33.58
2017-12-26T15:31:23.715Z,33.67
2017-12-26T15:31:51.939Z,33.7
2017-12-26T15:32:19.961Z,33.81
2017-12-26T15:32:47.941Z,33.85
2017-12-26T15:33:15.983Z,33.87
2017-12-26T15:33:44.154Z,33.85
2017-12-26T15:34:12.268Z,33.85
2017-12-26T15:34:40.359Z,33.92
2017-12-26T15:35:08.420Z,33.91
2017-12-26T15:35:36.562Z,33.81
2017-12-26T15:36:04.656Z,33.77
2017-12-26T15:36:32.773Z,33.89
2017-12-26T15:37:00.660Z,33.77
2017-12-26T15:37:28.841Z,33.79
2017-12-26T15:37:56.851Z,33.85
2017-12-26T15:38:24.966Z,33.97
2017-12-26T15:38:53.085Z,33.95
2017-12-26T15:39:21.281Z,34.02
2017-12-26T15:39:49.350Z,34.04
2017-12-26T15:40:17.388Z,33.97
2017-12-26T15:40:45.429Z,34.09
2017-12-26T15:41:13.486Z,34.03
2017-12-26T15:41:41.499Z,34.03
2017-12-26T15:42:09.472Z,34.09
2017-12-26T15:42:37.287Z,34.06
2017-12-26T15:43:05.332Z,34.06
2017-12-26T15:43:33.275Z,34.04
2017-12-26T15:44:01.417Z,34.02
2017-12-26T15:44:29.558Z,33.98
2017-12-26T15:44:57.577Z,33.85
2017-12-26T15:45:25.779Z,33.88
2017-12-26T15:45:53.791Z,33.82
2017-12-26T15:46:22.712Z,33.73
2017-12-26T15:46:50.835Z,33.72
2017-12-26T15:47:19.231Z,33.63
2017-12-26T15:47:47.265Z,33.61
2017-12-26T15:48:15.257Z,33.51
2017-12-26T15:48:43.313Z,33.53
2017-12-26T15:49:11.364Z,33.4
2017-12-26T15:49:39.469Z,33.32
2017-12-26T15:50:07.504Z,33.31
2017-12-26T15:50:35.675Z,33.16
2017-12-26T15:51:03.682Z,33.17
2017-12-26T15:51:31.866Z,33.17
2017-12-26T15:51:59.981Z,33.29
2017-12-26T15:52:28.124Z,33.44
2017-12-26T15:52:56.196Z,33.45
2017-12-26T15:53:24.113Z,33.53
2017-12-26T15:53:52.001Z,33.61
2017-12-26T15:54:20.066Z,33.63
2017-12-26T15:54:48.109Z,33.66
2017-12-26T15:55:16.275Z,33.72
2017-12-26T15:55:44.326Z,33.7
2017-12-26T15:56:12.370Z,33.84
2017-12-26T15:56:40.523Z,33.75
2017-12-26T15:57:08.581Z,33.77
2017-12-26T15:57:36.736Z,33.69
2017-12-26T15:58:04.914Z,33.76
2017-12-26T15:58:32.957Z,33.69
2017-12-26T15:59:01.080Z,33.76
2017-12-26T15:59:29.228Z,33.92
2017-12-26T15:59:57.181Z,33.87
2017-12-26T16:00:25.298Z,33.94
2017-12-26T16:00:53.409Z,33.98
2017-12-26T16:01:21.473Z,33.98
2017-12-26T16:01:49.565Z,33.97
2017-12-26T16:02:17.688Z,34.03
2017-12-26T16:02:45.719Z,33.92
2017-12-26T16:03:13.710Z,33.87
2017-12-26T16:03:41.825Z,33.88
2017-12-26T16:04:09.879Z,33.92
2017-12-26T16:04:37.898Z,33.81
2017-12-26T16:05:06.058Z,33.77
2017-12-26T16:05:34.097Z,33.63
2017-12-26T16:06:02.141Z,33.61
2017-12-26T16:06:30.310Z,33.61
2017-12-26T16:06:58.351Z,33.53
2017-12-26T16:07:26.219Z,33.54
2017-12-26T16:07:54.403Z,33.54
2017-12-26T16:08:22.342Z,33.51
2017-12-26T16:08:50.452Z,33.48
2017-12-26T16:09:18.581Z,33.48
2017-12-26T16:09:46.498Z,33.51
2017-12-26T16:10:14.535Z,33.39
2017-12-26T16:10:42.685Z,33.38
2017-12-26T16:11:10.751Z,33.29
2017-12-26T16:11:38.778Z,33.38
2017-12-26T16:12:06.743Z,33.32
2017-12-26T16:12:34.910Z,33.38
2017-12-26T16:13:03.007Z,33.29
2017-12-26T16:13:31.213Z,33.17
2017-12-26T16:13:59.336Z,33.1
2017-12-26T16:14:27.396Z,32.98
2017-12-26T16:14:55.400Z,33.08
2017-12-26T16:15:23.458Z,32.98
2017-12-26T16:15:51.564Z,33.04
2017-12-26T16:16:19.728Z,33.09
2017-12-26T16:16:47.820Z,33.13
2017-12-26T16:17:15.905Z,33.15
2017-12-26T16:17:44.168Z,33.04
2017-12-26T16:18:12.165Z,33.29
2017-12-26T16:18:40.258Z,33.2
2017-12-26T16:19:08.467Z,33.32
2017-12-26T16:19:36.594Z,33.33
2017-12-26T16:20:04.675Z,33.33
2017-12-26T16:20:32.719Z,33.47
2017-12-26T16:21:00.883Z,33.42
2017-12-26T16:21:28.965Z,33.4
2017-12-26T16:21:57.115Z,33.48
2017-12-26T16:22:25.290Z,33.47
2017-12-26T16:22:53.318Z,33.4
2017-12-26T16:23:21.484Z,33.42
2017-12-26T16:23:49.609Z,33.51
2017-12-26T16:24:17.751Z,33.48
2017-12-26T16:24:45.829Z,33.4
2017-12-26T16:25:13.873Z,33.5
2017-12-26T16:25:41.976Z,33.38
2017-12-26T16:26:10.055Z,33.48
2017-12-26T16:26:38.106Z,33.48
2017-12-26T16:27:06.120Z,33.45
2017-12-26T16:27:34.242Z,33.51
2017-12-26T16:28:02.212Z,33.51
2017-12-26T16:28:30.206Z,33.53
2017-12-26T16:28:58.332Z,33.51
2017-12-26T16:29:26.480Z,33.48
2017-12-26T16:29:54.543Z,33.47
2017-12-26T16:30:22.687Z,33.55
2017-12-26T16:30:50.815Z,33.54
2017-12-26T16:31:18.959Z,33.55
2017-12-26T16:31:47.011Z,33.72
2017-12-26T16:32:14.998Z,33.67
2017-12-26T16:32:43.239Z,33.65
2017-12-26T16:33:11.261Z,33.55
2017-12-26T16:33:39.364Z,33.51
2017-12-26T16:34:07.491Z,33.55
2017-12-26T16:34:35.407Z,33.4
2017-12-26T16:35:03.396Z,33.38
2017-12-26T16:35:31.441Z,33.4
2017-12-26T16:35:59.670Z,33.36
2017-12-26T16:36:27.727Z,33.35
2017-12-26T16:36:55.769Z,33.28
2017-12-26T16:37:24.044Z,33.23
2017-12-26T16:37:52.021Z,33.22
2017-12-26T16:38:20.149Z,33.17
2017-12-26T16:38:48.206Z,33.09
2017-12-26T16:39:16.241Z,33.12
2017-12-26T16:39:44.278Z,33.08
2017-12-26T16:40:12.297Z,33
2017-12-26T16:40:40.406Z,32.95
2017-12-26T16:41:08.438Z,32.97
2017-12-26T16:41:36.476Z,32.93
2017-12-26T16:42:04.470Z,32.79
2017-12-26T16:42:32.617Z,32.72
2017-12-26T16:43:00.731Z,32.57
2017-12-26T16:43:28.889Z,32.3
2017-12-26T16:43:57.039Z,32.22
2017-12-26T16:44:25.185Z,32.11
2017-12-26T16:44:53.346Z,32.07
2017-12-26T16:45:21.446Z,31.97
2017-12-26T16:45:49.576Z,31.89
2017-12-26T16:46:17.643Z,31.85
2017-12-26T16:46:45.727Z,31.78
2017-12-26T16:47:13.611Z,31.74
2017-12-26T16:47:41.689Z,31.69
2017-12-26T16:48:09.731Z,31.77
2017-12-26T16:48:37.676Z,31.67
2017-12-26T16:49:05.724Z,31.6
2017-12-26T16:49:33.793Z,31.57
2017-12-26T16:50:01.922Z,31.5
2017-12-26T16:50:30.033Z,31.37
2017-12-26T16:50:58.160Z,31.35
2017-12-26T16:51:26.120Z,31.18
2017-12-26T16:51:54.077Z,31.14
2017-12-26T16:52:22.205Z,31.1
2017-12-26T16:52:50.149Z,31.07
2017-12-26T16:53:18.338Z,30.93
2017-12-26T16:53:46.313Z,30.95
2017-12-26T16:54:14.343Z,30.92
2017-12-26T16:54:42.355Z,30.85
2017-12-26T16:55:10.323Z,30.91
2017-12-26T16:55:38.429Z,30.78
2017-12-26T16:56:06.472Z,30.71
2017-12-26T16:56:34.643Z,30.61
2017-12-26T16:57:02.833Z,30.61
2017-12-26T16:57:30.976Z,30.52
2017-12-26T16:57:58.998Z,30.48
2017-12-26T16:58:27.028Z,30.43
2017-12-26T16:58:55.118Z,30.35
2017-12-26T16:59:23.256Z,30.29
2017-12-26T16:59:51.410Z,30.24
2017-12-26T17:00:19.519Z,30.13
2017-12-26T17:00:47.674Z,29.81
2017-12-26T17:01:15.804Z,29.55
2017-12-26T17:01:43.725Z,29.22
2017-12-26T17:02:11.825Z,29.02
2017-12-26T17:02:39.835Z,28.67
2017-12-26T17:03:08.133Z,28.4
2017-12-26T17:03:36.251Z,28.35
2017-12-26T17:04:04.279Z,28.01
2017-12-26T17:04:32.402Z,27.82
2017-12-26T17:05:00.415Z,27.64
2017-12-26T17:05:28.559Z,27.41
2017-12-26T17:05:56.664Z,27.37
2017-12-26T17:06:24.816Z,27.22
2017-12-26T17:06:52.885Z,26.93
2017-12-26T17:07:21.043Z,26.92
2017-12-26T17:07:49.156Z,26.78
2017-12-26T17:08:17.153Z,26.6
2017-12-26T17:08:45.280Z,26.39
2017-12-26T17:09:13.388Z,26.16
2017-12-26T17:09:41.523Z,25.99
2017-12-26T17:10:09.653Z,25.73
2017-12-26T17:10:37.805Z,25.62
2017-12-26T17:11:05.798Z,25.51
2017-12-26T17:11:33.981Z,25.39
2017-12-26T17:12:01.996Z,25.18
2017-12-26T17:12:30.128Z,25.12
2017-12-26T17:12:58.251Z,25.06
2017-12-26T17:13:26.405Z,24.86
2017-12-26T17:13:54.254Z,24.92
2017-12-26T17:14:22.441Z,24.88
2017-12-26T17:14:50.482Z,24.74
2017-12-26T17:15:18.378Z,24.77
2017-12-26T17:15:46.400Z,24.75
2017-12-26T17:16:14.572Z,24.69
2017-12-26T17:16:42.693Z,24.75
2017-12-26T17:17:10.782Z,24.56
2017-12-26T17:17:38.968Z,24.62
2017-12-26T17:18:07.216Z,24.62
2017-12-26T17:18:35.292Z,24.59
2017-12-26T17:19:03.337Z,24.62
2017-12-26T17:19:31.353Z,24.65
2017-12-26T17:19:59.419Z,24.58
2017-12-26T17:20:27.513Z,24.63
2017-12-26T17:20:55.415Z,24.61
2017-12-26T17:21:23.535Z,24.58
2017-12-26T17:21:51.539Z,24.75
2017-12-26T17:22:19.643Z,24.68
2017-12-26T17:22:47.673Z,24.65
2017-12-26T17:23:15.789Z,24.75
2017-12-26T17:23:43.821Z,24.56
2017-12-26T17:24:11.937Z,24.58
2017-12-26T17:24:39.977Z,24.58
2017-12-26T17:25:08.131Z,24.58
2017-12-26T17:25:36.167Z,24.46
2017-12-26T17:26:04.305Z,24.41
2017-12-26T17:26:32.484Z,24.48
2017-12-26T17:27:00.578Z,24.44
2017-12-26T17:27:28.698Z,24.37
2017-12-26T17:27:56.872Z,24.38
2017-12-26T17:28:24.894Z,24.32
2017-12-26T17:28:52.897Z,24.32
2017-12-26T17:29:21.015Z,24.25
2017-12-26T17:29:49.096Z,24.36
2017-12-26T17:30:17.196Z,24.31
2017-12-26T17:30:45.342Z,24.31
2017-12-26T17:31:13.455Z,24.32
2017-12-26T17:31:41.629Z,24.29
2017-12-26T17:32:09.647Z,24.31
2017-12-26T17:32:37.789Z,24.31
2017-12-26T17:33:05.812Z,24.41
2017-12-26T17:33:33.952Z,24.37
2017-12-26T17:34:02.116Z,24.36
2017-12-26T17:34:30.271Z,24.34
2017-12-26T17:34:58.288Z,24.36
2017-12-26T17:35:26.454Z,24.46
2017-12-26T17:35:54.490Z,24.38
2017-12-26T17:36:22.299Z,24.38
2017-12-26T17:36:50.431Z,24.4
2017-12-26T17:37:19.258Z,24.43
2017-12-26T17:37:47.381Z,24.43
2017-12-26T17:38:15.415Z,24.55
2017-12-26T17:38:43.531Z,24.55
2017-12-26T17:39:11.657Z,24.56
2017-12-26T17:39:39.680Z,24.51
2017-12-26T17:40:07.713Z,24.59
2017-12-26T17:40:35.830Z,24.58
2017-12-26T17:41:03.851Z,24.62
2017-12-26T17:41:31.939Z,24.58
2017-12-26T17:42:00.059Z,24.56
2017-12-26T17:42:28.171Z,24.55
2017-12-26T17:42:56.285Z,24.44
2017-12-26T17:43:24.456Z,24.43
2017-12-26T17:43:52.570Z,24.44
2017-12-26T17:44:20.715Z,24.41
2017-12-26T17:44:48.829Z,24.38
2017-12-26T17:45:16.926Z,24.36
2017-12-26T17:45:44.952Z,24.31
2017-12-26T17:46:13.095Z,24.36
2017-12-26T17:46:41.232Z,24.29
2017-12-26T17:47:09.371Z,24.32
2017-12-26T17:47:37.507Z,24.18
2017-12-26T17:48:05.531Z,24.21
2017-12-26T17:48:33.647Z,24.22
2017-12-26T17:49:01.764Z,24.19
2017-12-26T17:49:29.791Z,24.18
2017-12-26T17:49:57.897Z,24.09
2017-12-26T17:50:25.875Z,24.18
2017-12-26T17:50:53.911Z,24.06
2017-12-26T17:51:21.945Z,24.21
2017-12-26T17:51:50.101Z,24.16
2017-12-26T17:52:18.276Z,24.07
2017-12-26T17:52:46.482Z,24.13
2017-12-26T17:53:14.542Z,24.1
2017-12-26T17:53:42.605Z,24.13
2017-12-26T17:54:10.733Z,24.21
2017-12-26T17:54:38.848Z,24.29
2017-12-26T17:55:06.875Z,24.31
2017-12-26T17:55:34.966Z,24.41
2017-12-26T17:56:03.090Z,24.4
2017-12-26T17:56:31.162Z,24.51
2017-12-26T17:56:59.347Z,24.55
2017-12-26T17:57:27.551Z,24.51
2017-12-26T17:57:55.675Z,24.63
2017-12-26T17:58:23.781Z,24.59
2017-12-26T17:58:51.875Z,24.62
2017-12-26T17:59:19.902Z,24.66
2017-12-26T17:59:48.079Z,24.71
2017-12-26T18:00:16.216Z,24.71
2017-12-26T18:00:44.250Z,24.75
2017-12-26T18:01:12.448Z,24.85
2017-12-26T18:01:40.352Z,24.93
2017-12-26T18:02:08.427Z,24.94
2017-12-26T18:02:36.568Z,24.89
2017-12-26T18:03:04.700Z,24.99
2017-12-26T18:03:32.713Z,24.97
2017-12-26T18:04:00.648Z,24.96
2017-12-26T18:04:28.748Z,25.01
2017-12-26T18:04:56.804Z,24.96
2017-12-26T18:05:24.942Z,24.92
2017-12-26T18:05:53.009Z,24.99
2017-12-26T18:06:20.983Z,24.96
2017-12-26T18:06:49.080Z,24.85
2017-12-26T18:07:17.128Z,24.99
2017-12-26T18:07:45.277Z,24.97
2017-12-26T18:08:13.426Z,24.96
2017-12-26T18:08:41.405Z,24.99
2017-12-26T18:09:09.529Z,25.03
2017-12-26T18:09:37.635Z,24.99
2017-12-26T18:10:05.719Z,25.01
2017-12-26T18:10:33.774Z,25.01
2017-12-26T18:11:01.954Z,25.12
2017-12-26T18:11:30.015Z,25
2017-12-26T18:11:58.143Z,25.12
2017-12-26T18:12:26.206Z,25.12
2017-12-26T18:12:54.265Z,25.01
2017-12-26T18:13:22.414Z,25
2017-12-26T18:13:50.408Z,25.03
2017-12-26T18:14:18.513Z,24.99
2017-12-26T18:14:46.640Z,25.01
2017-12-26T18:15:14.831Z,24.97
2017-12-26T18:15:42.854Z,24.99
2017-12-26T18:16:11.018Z,25.03
2017-12-26T18:16:39.205Z,24.94
2017-12-26T18:17:07.108Z,24.86
2017-12-26T18:17:35.265Z,24.89
2017-12-26T18:18:03.373Z,24.92
2017-12-26T18:18:31.509Z,24.92
2017-12-26T18:18:59.812Z,24.92
2017-12-26T18:19:27.908Z,24.89
2017-12-26T18:19:56.016Z,24.82
2017-12-26T18:20:24.122Z,24.89
2017-12-26T18:20:52.123Z,24.93
2017-12-26T18:21:20.282Z,24.92
2017-12-26T18:21:48.282Z,24.89
2017-12-26T18:22:16.336Z,24.99
2017-12-26T18:22:44.465Z,24.99
2017-12-26T18:23:12.592Z,25.01
2017-12-26T18:23:40.794Z,24.99
2017-12-26T18:24:08.882Z,24.97
2017-12-26T18:24:37.036Z,24.92
2017-12-26T18:25:05.083Z,25.03
2017-12-26T18:25:33.214Z,24.99
2017-12-26T18:26:01.375Z,25.09
2017-12-26T18:26:29.466Z,24.97
2017-12-26T18:26:57.556Z,25
2017-12-26T18:27:25.730Z,25.06
2017-12-26T18:27:53.723Z,25.16
2017-12-26T18:28:21.834Z,25.15
2017-12-26T18:29:05.149Z,25.24
2017-12-26T18:29:32.948Z,25.26
2017-12-26T18:30:00.866Z,25.22
2017-12-26T18:30:29.008Z,25.31
2017-12-26T18:30:57.093Z,25.29
2017-12-26T18:31:25.173Z,25.31
2017-12-26T18:31:53.240Z,25.34
2017-12-26T18:32:21.394Z,25.43
2017-12-26T18:32:49.406Z,25.39
2017-12-26T18:33:17.482Z,25.44
2017-12-26T18:33:45.500Z,25.41
2017-12-26T18:34:13.604Z,25.43
2017-12-26T18:34:41.659Z,25.54
2017-12-26T18:35:09.722Z,25.41
2017-12-26T18:35:37.765Z,25.49
2017-12-26T18:36:05.768Z,25.49
2017-12-26T18:36:33.805Z,25.44
2017-12-26T18:37:01.716Z,25.41
2017-12-26T18:37:29.895Z,25.4
2017-12-26T18:37:57.946Z,25.34
2017-12-26T18:38:26.787Z,25.36
2017-12-26T18:38:54.824Z,25.3
2017-12-26T18:39:23.040Z,25.34
2017-12-26T18:39:51.173Z,25.3
2017-12-26T18:40:19.218Z,25.3
2017-12-26T18:40:47.352Z,25.24
2017-12-26T18:41:15.346Z,25.26
2017-12-26T18:41:43.413Z,25.31
2017-12-26T18:42:11.313Z,25.29
2017-12-26T18:42:39.323Z,25.25
2017-12-26T18:43:07.472Z,25.29
2017-12-26T18:43:35.304Z,25.33
2017-12-26T18:44:03.374Z,25.36
2017-12-26T18:44:31.442Z,25.3
2017-12-26T18:44:59.436Z,25.25
2017-12-26T18:45:27.581Z,25.25
2017-12-26T18:45:55.493Z,25.26
2017-12-26T18:46:23.507Z,25.29
2017-12-26T18:46:51.607Z,25.29
2017-12-26T18:47:19.631Z,25.3
2017-12-26T18:47:47.674Z,25.31
2017-12-26T18:48:15.794Z,25.31
2017-12-26T18:48:43.828Z,25.31
2017-12-26T18:49:11.733Z,25.3
2017-12-26T18:49:39.973Z,25.31
2017-12-26T18:50:08.178Z,25.24
2017-12-26T18:50:36.249Z,25.25
2017-12-26T18:51:04.282Z,25.24
2017-12-26T18:51:32.311Z,25.21
2017-12-26T18:52:00.333Z,25.21
2017-12-26T18:52:28.309Z,25.22
2017-12-26T18:52:56.355Z,25.12
2017-12-26T18:53:24.481Z,25.11
2017-12-26T18:53:52.416Z,25.11
2017-12-26T18:54:20.417Z,25.07
2017-12-26T18:54:48.299Z,25.11
2017-12-26T18:55:16.327Z,25.11
2017-12-26T18:55:44.392Z,24.99
2017-12-26T18:56:12.274Z,25.04
2017-12-26T18:56:40.358Z,25.04
2017-12-26T18:57:08.468Z,25.11
2017-12-26T18:57:36.393Z,25.16
2017-12-26T18:58:04.557Z,25.15
2017-12-26T18:58:32.498Z,25.18
2017-12-26T18:59:00.436Z,25.22
2017-12-26T18:59:28.582Z,25.22
2017-12-26T18:59:56.614Z,25.26
2017-12-26T19:00:24.570Z,25.29
2017-12-26T19:00:52.594Z,25.24
2017-12-26T19:01:20.601Z,25.18
2017-12-26T19:01:48.616Z,25.24
2017-12-26T19:02:16.772Z,25.21
2017-12-26T19:02:44.865Z,25.16
2017-12-26T19:03:12.763Z,25.15
2017-12-26T19:03:40.781Z,25.11
2017-12-26T19:04:08.827Z,25.09
2017-12-26T19:04:37.072Z,25.09
2017-12-26T19:05:05.207Z,25.01
2017-12-26T19:05:33.216Z,25.06
2017-12-26T19:06:01.341Z,24.96
2017-12-26T19:06:29.222Z,24.93
2017-12-26T19:06:57.275Z,24.82
2017-12-26T19:07:25.239Z,24.75
2017-12-26T19:07:53.171Z,24.68
2017-12-26T19:08:21.314Z,24.66
2017-12-26T19:08:49.087Z,24.59
2017-12-26T19:09:17.007Z,24.59
2017-12-26T19:09:45.031Z,24.5
2017-12-26T19:10:13.034Z,24.41
2017-12-26T19:10:41.045Z,24.41
2017-12-26T19:11:08.963Z,24.38
2017-12-26T19:11:36.893Z,24.31
2017-12-26T19:12:04.811Z,24.38
2017-12-26T19:12:32.915Z,24.32
2017-12-26T19:13:00.853Z,24.29
2017-12-26T19:13:29.023Z,24.31
2017-12-26T19:13:56.941Z,24.34
2017-12-26T19:14:25.053Z,24.21
2017-12-26T19:14:53.147Z,24.25
2017-12-26T19:15:21.238Z,24.18
2017-12-26T19:15:49.280Z,24.16
2017-12-26T19:16:17.442Z,24.14
2017-12-26T19:16:45.480Z,24.09
2017-12-26T19:17:13.371Z,24.03
2017-12-26T19:17:41.409Z,24.04
2017-12-26T19:18:09.422Z,23.99
2017-12-26T19:18:37.324Z,24.03
2017-12-26T19:19:06.184Z,24.01
2017-12-26T19:19:34.195Z,24.04
2017-12-26T19:20:02.228Z,24.06
2017-12-26T19:20:30.209Z,24.06
2017-12-26T19:20:58.224Z,24.06
2017-12-26T19:21:26.173Z,24.04
2017-12-26T19:21:54.349Z,24.11
2017-12-26T19:22:22.385Z,24.04
2017-12-26T19:22:50.537Z,24.09
2017-12-26T19:23:18.477Z,24.11
2017-12-26T19:23:46.509Z,24.1
2017-12-26T19:24:14.650Z,24.1
2017-12-26T19:24:42.867Z,24.06
2017-12-26T19:25:10.773Z,24.13
2017-12-26T19:25:38.888Z,24.14
2017-12-26T19:26:07.012Z,24.19
2017-12-26T19:26:35.165Z,24.14
2017-12-26T19:27:03.339Z,24.14
2017-12-26T19:27:31.365Z,24.18
2017-12-26T19:27:59.310Z,24.16
2017-12-26T19:28:27.301Z,24.21
2017-12-26T19:28:55.219Z,24.25
2017-12-26T19:29:23.024Z,24.34
2017-12-26T19:29:51.084Z,24.31
2017-12-26T19:30:19.228Z,24.31
2017-12-26T19:30:47.087Z,24.41
2017-12-26T19:31:14.985Z,24.41
2017-12-26T19:31:42.941Z,24.37
2017-12-26T19:32:11.076Z,24.58
2017-12-26T19:32:39.164Z,24.61
2017-12-26T19:33:07.230Z,24.61
2017-12-26T19:33:35.371Z,24.55
2017-12-26T19:34:03.522Z,24.58
2017-12-26T19:34:31.493Z,24.59
2017-12-26T19:34:59.628Z,24.66
2017-12-26T19:35:27.640Z,24.74
2017-12-26T19:35:55.606Z,24.69
2017-12-26T19:36:23.617Z,24.74
2017-12-26T19:36:51.623Z,24.75
2017-12-26T19:37:19.675Z,24.85
2017-12-26T19:37:47.695Z,24.82
2017-12-26T19:38:15.618Z,24.89
2017-12-26T19:38:43.771Z,24.92
2017-12-26T19:39:11.744Z,24.94
2017-12-26T19:39:39.866Z,25.01
2017-12-26T19:40:08.007Z,25.06
2017-12-26T19:40:36.036Z,25.01
2017-12-26T19:41:04.238Z,25.18
2017-12-26T19:41:32.167Z,25.21
2017-12-26T19:42:00.211Z,25.26
2017-12-26T19:42:28.238Z,25.26
2017-12-26T19:42:56.190Z,25.37
2017-12-26T19:43:24.238Z,25.36
2017-12-26T19:43:52.208Z,25.37
2017-12-26T19:44:20.347Z,25.41
2017-12-26T19:44:48.240Z,25.36
2017-12-26T19:45:16.396Z,25.44
2017-12-26T19:45:44.404Z,25.41
2017-12-26T19:46:12.421Z,25.41
2017-12-26T19:46:40.530Z,25.52
2017-12-26T19:47:08.658Z,25.41
2017-12-26T19:47:36.697Z,25.48
2017-12-26T19:48:04.481Z,25.48
2017-12-26T19:48:32.659Z,25.51
2017-12-26T19:49:00.763Z,25.63
2017-12-26T19:49:28.657Z,25.58
2017-12-26T19:49:56.807Z,25.67
2017-12-26T19:50:24.738Z,25.71
2017-12-26T19:50:52.799Z,25.7
2017-12-26T19:51:20.922Z,25.68
2017-12-26T19:51:48.860Z,25.73
2017-12-26T19:52:16.899Z,25.73
2017-12-26T19:52:44.940Z,25.74
2017-12-26T19:53:12.956Z,25.71
2017-12-26T19:53:40.820Z,25.7
2017-12-26T19:54:09.022Z,25.67
2017-12-26T19:54:36.832Z,25.61
2017-12-26T19:55:04.730Z,25.61
2017-12-26T19:55:32.877Z,25.58
2017-12-26T19:56:01.035Z,25.56
2017-12-26T19:56:28.976Z,25.67
2017-12-26T19:56:56.822Z,25.61
2017-12-26T19:57:25.032Z,25.54
2017-12-26T19:57:52.962Z,25.41
2017-12-26T19:58:20.964Z,25.41
2017-12-26T19:58:48.992Z,25.41
2017-12-26T19:59:17.064Z,25.43
2017-12-26T19:59:45.115Z,25.34
2017-12-26T20:00:13.149Z,25.36
2017-12-26T20:00:41.230Z,25.26
2017-12-26T20:01:09.170Z,25.24
2017-12-26T20:01:37.095Z,25.25
2017-12-26T20:02:05.146Z,25.19
2017-12-26T20:02:33.278Z,25.29
2017-12-26T20:03:01.326Z,25.19
2017-12-26T20:03:29.318Z,25.15
2017-12-26T20:03:57.387Z,25.14
2017-12-26T20:04:25.308Z,25.14